sensor_id;sensor_type;location;lat;lon;timestamp;P1;durP1;ratioP1;P2;durP2;ratioP2
6444;SDS011;64733;51.424;5.484;2022-12-04T00:11:55;11.32;;;6.93;;
6444;SDS011;64733;51.424;5.484;2022-12-04T00:14:22;9.63;;;5.57;;
6444;SDS011;64733;51.424;5.484;2022-12-04T00:16:49;10.07;;;5.93;;
6444;SDS011;64733;51.424;5.484;2022-12-04T00:19:15;10.00;;;6.05;;
6444;SDS011;64733;51.424;5.484;2022-12-04T00:21:42;9.80;;;6.47;;
6444;SDS011;64733;51.424;5.484;2022-12-04T00:24:10;9.38;;;6.05;;
6444;SDS011;64733;51.424;5.484;2022-12-04T00:26:37;10.50;;;6.20;;
6444;SDS011;64733;51.424;5.484;2022-12-04T00:29:05;9.80;;;6.75;;
6444;SDS011;64733;51.424;5.484;2022-12-04T00:31:32;11.57;;;6.22;;
6444;SDS011;64733;51.424;5.484;2022-12-04T00:33:59;9.45;;;5.97;;
6444;SDS011;64733;51.424;5.484;2022-12-04T00:36:26;10.50;;;6.68;;
6444;SDS011;64733;51.424;5.484;2022-12-04T00:38:53;10.63;;;5.97;;
6444;SDS011;64733;51.424;5.484;2022-12-04T00:41:21;9.50;;;5.90;;
6444;SDS011;64733;51.424;5.484;2022-12-04T00:43:49;10.73;;;5.88;;
6444;SDS011;64733;51.424;5.484;2022-12-04T00:46:18;11.70;;;7.38;;
6444;SDS011;64733;51.424;5.484;2022-12-04T00:48:45;9.32;;;6.40;;
6444;SDS011;64733;51.424;5.484;2022-12-04T00:51:13;12.48;;;6.88;;
6444;SDS011;64733;51.424;5.484;2022-12-04T00:53:41;9.85;;;6.38;;
6444;SDS011;64733;51.424;5.484;2022-12-04T00:56:08;9.68;;;6.47;;
6444;SDS011;64733;51.424;5.484;2022-12-04T00:58:37;11.75;;;6.43;;
6444;SDS011;64733;51.424;5.484;2022-12-04T01:01:04;9.32;;;5.40;;
6444;SDS011;64733;51.424;5.484;2022-12-04T01:03:34;10.20;;;6.60;;
6444;SDS011;64733;51.424;5.484;2022-12-04T01:06:01;10.85;;;6.32;;
6444;SDS011;64733;51.424;5.484;2022-12-04T01:08:28;11.88;;;6.82;;
6444;SDS011;64733;51.424;5.484;2022-12-04T01:10:55;12.07;;;6.97;;
6444;SDS011;64733;51.424;5.484;2022-12-04T01:13:24;11.48;;;6.38;;
6444;SDS011;64733;51.424;5.484;2022-12-04T01:15:52;9.95;;;6.65;;
6444;SDS011;64733;51.424;5.484;2022-12-04T01:18:18;10.15;;;6.93;;
6444;SDS011;64733;51.424;5.484;2022-12-04T01:20:47;9.82;;;5.97;;
6444;SDS011;64733;51.424;5.484;2022-12-04T01:23:14;11.35;;;6.55;;
6444;SDS011;64733;51.424;5.484;2022-12-04T01:25:48;9.65;;;6.20;;
6444;SDS011;64733;51.424;5.484;2022-12-04T01:28:16;10.30;;;6.63;;
6444;SDS011;64733;51.424;5.484;2022-12-04T01:30:42;9.73;;;6.65;;
6444;SDS011;64733;51.424;5.484;2022-12-04T01:33:09;10.73;;;6.70;;
6444;SDS011;64733;51.424;5.484;2022-12-04T01:35:36;12.05;;;6.85;;
6444;SDS011;64733;51.424;5.484;2022-12-04T01:38:04;10.27;;;6.53;;
6444;SDS011;64733;51.424;5.484;2022-12-04T01:40:30;10.27;;;6.20;;
6444;SDS011;64733;51.424;5.484;2022-12-04T01:42:58;11.07;;;6.50;;
6444;SDS011;64733;51.424;5.484;2022-12-04T01:48:16;10.63;;;6.60;;
6444;SDS011;64733;51.424;5.484;2022-12-04T01:50:46;12.43;;;6.70;;
6444;SDS011;64733;51.424;5.484;2022-12-04T01:53:18;11.10;;;7.05;;
6444;SDS011;64733;51.424;5.484;2022-12-04T01:55:46;9.27;;;5.95;;
6444;SDS011;64733;51.424;5.484;2022-12-04T01:58:13;10.75;;;6.28;;
6444;SDS011;64733;51.424;5.484;2022-12-04T02:00:41;9.48;;;5.90;;
6444;SDS011;64733;51.424;5.484;2022-12-04T02:03:10;12.60;;;7.38;;
6444;SDS011;64733;51.424;5.484;2022-12-04T02:05:38;10.73;;;6.63;;
6444;SDS011;64733;51.424;5.484;2022-12-04T02:08:04;10.38;;;6.80;;
6444;SDS011;64733;51.424;5.484;2022-12-04T02:10:36;11.05;;;6.45;;
6444;SDS011;64733;51.424;5.484;2022-12-04T02:13:11;10.32;;;6.07;;
6444;SDS011;64733;51.424;5.484;2022-12-04T02:15:44;13.20;;;6.60;;
6444;SDS011;64733;51.424;5.484;2022-12-04T02:18:16;11.52;;;6.68;;
6444;SDS011;64733;51.424;5.484;2022-12-04T02:20:48;11.60;;;6.43;;
6444;SDS011;64733;51.424;5.484;2022-12-04T02:23:30;10.18;;;6.85;;
6444;SDS011;64733;51.424;5.484;2022-12-04T02:26:13;10.57;;;6.53;;
6444;SDS011;64733;51.424;5.484;2022-12-04T02:28:56;12.43;;;6.82;;
6444;SDS011;64733;51.424;5.484;2022-12-04T02:31:33;11.15;;;6.47;;
6444;SDS011;64733;51.424;5.484;2022-12-04T02:34:04;10.43;;;6.18;;
6444;SDS011;64733;51.424;5.484;2022-12-04T02:36:39;11.80;;;6.70;;
6444;SDS011;64733;51.424;5.484;2022-12-04T02:39:11;10.80;;;6.53;;
6444;SDS011;64733;51.424;5.484;2022-12-04T02:41:45;11.35;;;6.68;;
6444;SDS011;64733;51.424;5.484;2022-12-04T02:44:21;11.40;;;6.30;;
6444;SDS011;64733;51.424;5.484;2022-12-04T02:46:54;11.98;;;6.88;;
6444;SDS011;64733;51.424;5.484;2022-12-04T02:49:25;10.32;;;6.57;;
6444;SDS011;64733;51.424;5.484;2022-12-04T02:51:54;10.68;;;6.82;;
6444;SDS011;64733;51.424;5.484;2022-12-04T02:54:25;9.93;;;6.45;;
6444;SDS011;64733;51.424;5.484;2022-12-04T02:59:25;14.00;;;7.20;;
6444;SDS011;64733;51.424;5.484;2022-12-04T03:22:58;11.43;;;7.00;;
6444;SDS011;64733;51.424;5.484;2022-12-04T03:25:31;10.30;;;6.00;;
6444;SDS011;64733;51.424;5.484;2022-12-04T03:28:03;10.38;;;6.90;;
6444;SDS011;64733;51.424;5.484;2022-12-04T03:30:35;9.85;;;6.60;;
6444;SDS011;64733;51.424;5.484;2022-12-04T03:33:10;10.30;;;7.10;;
6444;SDS011;64733;51.424;5.484;2022-12-04T03:35:41;10.23;;;6.28;;
6444;SDS011;64733;51.424;5.484;2022-12-04T03:38:14;10.23;;;6.93;;
6444;SDS011;64733;51.424;5.484;2022-12-04T03:40:44;11.40;;;6.28;;
6444;SDS011;64733;51.424;5.484;2022-12-04T03:43:19;11.80;;;6.85;;
6444;SDS011;64733;51.424;5.484;2022-12-04T03:45:52;11.30;;;6.60;;
6444;SDS011;64733;51.424;5.484;2022-12-04T03:48:25;10.20;;;7.35;;
6444;SDS011;64733;51.424;5.484;2022-12-04T03:50:58;10.60;;;6.15;;
6444;SDS011;64733;51.424;5.484;2022-12-04T03:56:02;11.90;;;6.75;;
6444;SDS011;64733;51.424;5.484;2022-12-04T03:58:34;11.18;;;6.70;;
6444;SDS011;64733;51.424;5.484;2022-12-04T04:01:03;13.40;;;7.47;;
6444;SDS011;64733;51.424;5.484;2022-12-04T04:03:35;10.43;;;5.95;;
6444;SDS011;64733;51.424;5.484;2022-12-04T04:06:06;11.55;;;6.60;;
6444;SDS011;64733;51.424;5.484;2022-12-04T04:08:38;10.90;;;7.00;;
6444;SDS011;64733;51.424;5.484;2022-12-04T04:11:09;11.27;;;7.13;;
6444;SDS011;64733;51.424;5.484;2022-12-04T04:13:41;12.25;;;7.13;;
6444;SDS011;64733;51.424;5.484;2022-12-04T04:16:30;11.73;;;7.28;;
6444;SDS011;64733;51.424;5.484;2022-12-04T04:19:33;12.88;;;6.78;;
6444;SDS011;64733;51.424;5.484;2022-12-04T04:22:19;12.70;;;7.60;;
6444;SDS011;64733;51.424;5.484;2022-12-04T04:25:09;11.60;;;7.15;;
6444;SDS011;64733;51.424;5.484;2022-12-04T04:27:37;9.88;;;6.28;;
6444;SDS011;64733;51.424;5.484;2022-12-04T04:30:04;12.45;;;7.25;;
6444;SDS011;64733;51.424;5.484;2022-12-04T04:32:33;10.63;;;6.70;;
6444;SDS011;64733;51.424;5.484;2022-12-04T04:35:07;11.30;;;6.93;;
6444;SDS011;64733;51.424;5.484;2022-12-04T04:37:44;11.88;;;7.05;;
6444;SDS011;64733;51.424;5.484;2022-12-04T04:40:24;12.43;;;6.95;;
6444;SDS011;64733;51.424;5.484;2022-12-04T04:42:59;12.10;;;7.35;;
6444;SDS011;64733;51.424;5.484;2022-12-04T04:45:33;11.85;;;7.40;;
6444;SDS011;64733;51.424;5.484;2022-12-04T04:48:05;12.80;;;7.72;;
6444;SDS011;64733;51.424;5.484;2022-12-04T04:50:34;13.10;;;7.80;;
6444;SDS011;64733;51.424;5.484;2022-12-04T04:53:03;12.68;;;7.05;;
6444;SDS011;64733;51.424;5.484;2022-12-04T04:55:34;12.27;;;7.53;;
6444;SDS011;64733;51.424;5.484;2022-12-04T04:58:06;11.05;;;6.72;;
6444;SDS011;64733;51.424;5.484;2022-12-04T05:00:33;12.60;;;7.38;;
6444;SDS011;64733;51.424;5.484;2022-12-04T05:03:01;13.73;;;7.13;;
6444;SDS011;64733;51.424;5.484;2022-12-04T05:05:28;13.32;;;8.15;;
6444;SDS011;64733;51.424;5.484;2022-12-04T05:07:54;11.98;;;7.45;;
6444;SDS011;64733;51.424;5.484;2022-12-04T05:10:21;11.52;;;7.07;;
6444;SDS011;64733;51.424;5.484;2022-12-04T05:12:49;13.68;;;7.45;;
6444;SDS011;64733;51.424;5.484;2022-12-04T05:15:16;11.95;;;7.63;;
6444;SDS011;64733;51.424;5.484;2022-12-04T05:17:42;11.80;;;7.30;;
6444;SDS011;64733;51.424;5.484;2022-12-04T05:20:09;11.32;;;7.57;;
6444;SDS011;64733;51.424;5.484;2022-12-04T05:22:35;11.88;;;7.22;;
6444;SDS011;64733;51.424;5.484;2022-12-04T05:25:03;13.45;;;7.80;;
6444;SDS011;64733;51.424;5.484;2022-12-04T05:27:30;12.10;;;7.20;;
6444;SDS011;64733;51.424;5.484;2022-12-04T05:29:59;12.35;;;7.30;;
6444;SDS011;64733;51.424;5.484;2022-12-04T05:32:26;13.10;;;7.53;;
6444;SDS011;64733;51.424;5.484;2022-12-04T05:34:54;11.57;;;7.85;;
6444;SDS011;64733;51.424;5.484;2022-12-04T05:37:22;11.63;;;7.65;;
6444;SDS011;64733;51.424;5.484;2022-12-04T05:39:48;13.90;;;8.10;;
6444;SDS011;64733;51.424;5.484;2022-12-04T05:42:18;12.27;;;6.85;;
6444;SDS011;64733;51.424;5.484;2022-12-04T05:44:44;11.40;;;6.65;;
6444;SDS011;64733;51.424;5.484;2022-12-04T05:47:12;11.80;;;6.97;;
6444;SDS011;64733;51.424;5.484;2022-12-04T05:49:39;11.02;;;6.25;;
6444;SDS011;64733;51.424;5.484;2022-12-04T05:52:06;11.63;;;6.95;;
6444;SDS011;64733;51.424;5.484;2022-12-04T05:54:34;13.27;;;7.03;;
6444;SDS011;64733;51.424;5.484;2022-12-04T05:57:01;11.93;;;7.38;;
6444;SDS011;64733;51.424;5.484;2022-12-04T05:59:28;11.82;;;7.38;;
6444;SDS011;64733;51.424;5.484;2022-12-04T06:01:55;14.13;;;7.90;;
6444;SDS011;64733;51.424;5.484;2022-12-04T06:04:23;13.68;;;8.20;;
6444;SDS011;64733;51.424;5.484;2022-12-04T06:06:50;12.52;;;7.25;;
6444;SDS011;64733;51.424;5.484;2022-12-04T06:09:18;11.90;;;7.00;;
6444;SDS011;64733;51.424;5.484;2022-12-04T06:11:45;12.90;;;7.35;;
6444;SDS011;64733;51.424;5.484;2022-12-04T06:14:12;13.38;;;8.35;;
6444;SDS011;64733;51.424;5.484;2022-12-04T06:16:41;13.15;;;7.90;;
6444;SDS011;64733;51.424;5.484;2022-12-04T06:19:10;13.77;;;8.32;;
6444;SDS011;64733;51.424;5.484;2022-12-04T06:21:40;13.60;;;7.85;;
6444;SDS011;64733;51.424;5.484;2022-12-04T06:24:09;14.77;;;8.65;;
6444;SDS011;64733;51.424;5.484;2022-12-04T06:26:39;16.88;;;8.60;;
6444;SDS011;64733;51.424;5.484;2022-12-04T06:29:06;12.50;;;7.15;;
6444;SDS011;64733;51.424;5.484;2022-12-04T06:31:33;14.32;;;8.00;;
6444;SDS011;64733;51.424;5.484;2022-12-04T06:34:02;12.40;;;7.47;;
6444;SDS011;64733;51.424;5.484;2022-12-04T06:36:29;12.52;;;7.28;;
6444;SDS011;64733;51.424;5.484;2022-12-04T06:38:58;13.18;;;7.90;;
6444;SDS011;64733;51.424;5.484;2022-12-04T06:41:25;14.48;;;8.32;;
6444;SDS011;64733;51.424;5.484;2022-12-04T06:43:53;13.70;;;7.95;;
6444;SDS011;64733;51.424;5.484;2022-12-04T06:46:21;12.93;;;7.88;;
6444;SDS011;64733;51.424;5.484;2022-12-04T06:48:49;12.10;;;7.72;;
6444;SDS011;64733;51.424;5.484;2022-12-04T06:51:17;13.50;;;7.75;;
6444;SDS011;64733;51.424;5.484;2022-12-04T06:53:45;14.88;;;8.35;;
6444;SDS011;64733;51.424;5.484;2022-12-04T06:56:15;14.30;;;8.15;;
6444;SDS011;64733;51.424;5.484;2022-12-04T06:58:43;15.27;;;8.45;;
6444;SDS011;64733;51.424;5.484;2022-12-04T07:22:44;14.93;;;8.27;;
6444;SDS011;64733;51.424;5.484;2022-12-04T07:25:11;13.63;;;7.85;;
6444;SDS011;64733;51.424;5.484;2022-12-04T07:27:38;14.93;;;8.32;;
6444;SDS011;64733;51.424;5.484;2022-12-04T07:30:05;11.48;;;7.53;;
6444;SDS011;64733;51.424;5.484;2022-12-04T07:32:32;14.50;;;8.73;;
6444;SDS011;64733;51.424;5.484;2022-12-04T07:34:59;11.68;;;7.20;;
6444;SDS011;64733;51.424;5.484;2022-12-04T07:37:26;11.75;;;7.45;;
6444;SDS011;64733;51.424;5.484;2022-12-04T07:39:54;11.00;;;6.78;;
6444;SDS011;64733;51.424;5.484;2022-12-04T07:42:21;14.27;;;7.28;;
6444;SDS011;64733;51.424;5.484;2022-12-04T07:44:48;11.52;;;7.15;;
6444;SDS011;64733;51.424;5.484;2022-12-04T07:47:14;12.32;;;7.55;;
6444;SDS011;64733;51.424;5.484;2022-12-04T07:49:41;12.75;;;7.38;;
6444;SDS011;64733;51.424;5.484;2022-12-04T07:52:08;11.50;;;7.22;;
6444;SDS011;64733;51.424;5.484;2022-12-04T07:54:35;11.75;;;7.50;;
6444;SDS011;64733;51.424;5.484;2022-12-04T07:57:03;11.07;;;7.20;;
6444;SDS011;64733;51.424;5.484;2022-12-04T07:59:29;12.70;;;7.88;;
6444;SDS011;64733;51.424;5.484;2022-12-04T08:01:56;12.02;;;7.13;;
6444;SDS011;64733;51.424;5.484;2022-12-04T08:04:23;11.80;;;7.15;;
6444;SDS011;64733;51.424;5.484;2022-12-04T08:06:50;11.55;;;7.05;;
6444;SDS011;64733;51.424;5.484;2022-12-04T08:09:19;14.77;;;7.78;;
6444;SDS011;64733;51.424;5.484;2022-12-04T08:11:46;12.55;;;6.88;;
6444;SDS011;64733;51.424;5.484;2022-12-04T08:14:14;12.35;;;7.30;;
6444;SDS011;64733;51.424;5.484;2022-12-04T08:16:41;11.73;;;7.07;;
6444;SDS011;64733;51.424;5.484;2022-12-04T08:19:08;9.90;;;6.90;;
6444;SDS011;64733;51.424;5.484;2022-12-04T08:21:35;12.25;;;7.20;;
6444;SDS011;64733;51.424;5.484;2022-12-04T08:24:02;8.50;;;6.07;;
6444;SDS011;64733;51.424;5.484;2022-12-04T08:26:29;10.55;;;6.80;;
6444;SDS011;64733;51.424;5.484;2022-12-04T08:28:57;10.45;;;6.95;;
6444;SDS011;64733;51.424;5.484;2022-12-04T08:31:27;10.18;;;6.82;;
6444;SDS011;64733;51.424;5.484;2022-12-04T08:33:57;12.07;;;7.25;;
6444;SDS011;64733;51.424;5.484;2022-12-04T08:36:25;10.52;;;6.78;;
6444;SDS011;64733;51.424;5.484;2022-12-04T08:38:53;10.80;;;6.10;;
6444;SDS011;64733;51.424;5.484;2022-12-04T08:41:21;9.35;;;6.93;;
6444;SDS011;64733;51.424;5.484;2022-12-04T08:43:49;12.60;;;7.88;;
6444;SDS011;64733;51.424;5.484;2022-12-04T08:46:16;10.65;;;6.22;;
6444;SDS011;64733;51.424;5.484;2022-12-04T08:48:47;11.18;;;6.57;;
6444;SDS011;64733;51.424;5.484;2022-12-04T08:51:14;10.55;;;6.47;;
6444;SDS011;64733;51.424;5.484;2022-12-04T08:53:43;11.10;;;7.28;;
6444;SDS011;64733;51.424;5.484;2022-12-04T08:56:11;10.43;;;7.10;;
6444;SDS011;64733;51.424;5.484;2022-12-04T08:58:38;12.82;;;6.53;;
6444;SDS011;64733;51.424;5.484;2022-12-04T09:01:05;11.23;;;7.18;;
6444;SDS011;64733;51.424;5.484;2022-12-04T09:03:33;12.02;;;7.10;;
6444;SDS011;64733;51.424;5.484;2022-12-04T09:06:02;14.50;;;7.35;;
6444;SDS011;64733;51.424;5.484;2022-12-04T09:08:30;8.35;;;6.05;;
6444;SDS011;64733;51.424;5.484;2022-12-04T09:11:01;10.90;;;5.95;;
6444;SDS011;64733;51.424;5.484;2022-12-04T09:13:29;9.85;;;6.47;;
6444;SDS011;64733;51.424;5.484;2022-12-04T09:15:56;10.07;;;6.13;;
6444;SDS011;64733;51.424;5.484;2022-12-04T09:18:23;9.65;;;6.28;;
6444;SDS011;64733;51.424;5.484;2022-12-04T09:20:54;10.82;;;6.53;;
6444;SDS011;64733;51.424;5.484;2022-12-04T09:23:23;8.57;;;6.13;;
6444;SDS011;64733;51.424;5.484;2022-12-04T09:25:49;9.10;;;5.78;;
6444;SDS011;64733;51.424;5.484;2022-12-04T09:28:16;8.38;;;5.75;;
6444;SDS011;64733;51.424;5.484;2022-12-04T09:30:43;9.93;;;6.00;;
6444;SDS011;64733;51.424;5.484;2022-12-04T09:33:10;9.45;;;6.05;;
6444;SDS011;64733;51.424;5.484;2022-12-04T09:35:37;10.50;;;6.20;;
6444;SDS011;64733;51.424;5.484;2022-12-04T09:38:04;9.88;;;6.28;;
6444;SDS011;64733;51.424;5.484;2022-12-04T09:40:34;10.45;;;5.88;;
6444;SDS011;64733;51.424;5.484;2022-12-04T09:43:07;10.23;;;6.38;;
6444;SDS011;64733;51.424;5.484;2022-12-04T09:45:41;8.65;;;5.80;;
6444;SDS011;64733;51.424;5.484;2022-12-04T09:48:12;10.27;;;6.30;;
6444;SDS011;64733;51.424;5.484;2022-12-04T09:50:44;9.70;;;6.22;;
6444;SDS011;64733;51.424;5.484;2022-12-04T09:53:12;9.40;;;5.90;;
6444;SDS011;64733;51.424;5.484;2022-12-04T09:55:46;9.57;;;6.22;;
6444;SDS011;64733;51.424;5.484;2022-12-04T09:58:18;9.00;;;5.90;;
6444;SDS011;64733;51.424;5.484;2022-12-04T10:00:48;9.30;;;6.05;;
6444;SDS011;64733;51.424;5.484;2022-12-04T10:03:17;8.25;;;5.15;;
6444;SDS011;64733;51.424;5.484;2022-12-04T10:05:48;9.60;;;6.15;;
6444;SDS011;64733;51.424;5.484;2022-12-04T10:08:20;9.73;;;5.38;;
6444;SDS011;64733;51.424;5.484;2022-12-04T10:10:53;8.82;;;6.20;;
6444;SDS011;64733;51.424;5.484;2022-12-04T10:13:36;8.32;;;5.80;;
6444;SDS011;64733;51.424;5.484;2022-12-04T10:16:16;8.30;;;5.93;;
6444;SDS011;64733;51.424;5.484;2022-12-04T10:18:49;9.40;;;5.80;;
6444;SDS011;64733;51.424;5.484;2022-12-04T10:21:33;8.48;;;5.35;;
6444;SDS011;64733;51.424;5.484;2022-12-04T10:24:14;9.38;;;6.25;;
6444;SDS011;64733;51.424;5.484;2022-12-04T10:26:49;8.05;;;5.60;;
6444;SDS011;64733;51.424;5.484;2022-12-04T10:29:18;8.73;;;4.93;;
6444;SDS011;64733;51.424;5.484;2022-12-04T10:31:48;8.85;;;4.90;;
6444;SDS011;64733;51.424;5.484;2022-12-04T10:34:17;8.93;;;5.32;;
6444;SDS011;64733;51.424;5.484;2022-12-04T10:36:49;8.25;;;5.18;;
6444;SDS011;64733;51.424;5.484;2022-12-04T10:39:20;8.18;;;5.53;;
6444;SDS011;64733;51.424;5.484;2022-12-04T10:41:51;8.35;;;5.25;;
6444;SDS011;64733;51.424;5.484;2022-12-04T10:44:24;8.57;;;5.18;;
6444;SDS011;64733;51.424;5.484;2022-12-04T10:46:52;9.48;;;5.18;;
6444;SDS011;64733;51.424;5.484;2022-12-04T10:49:22;6.60;;;4.35;;
6444;SDS011;64733;51.424;5.484;2022-12-04T10:51:51;8.48;;;5.10;;
6444;SDS011;64733;51.424;5.484;2022-12-04T10:54:19;7.50;;;5.18;;
6444;SDS011;64733;51.424;5.484;2022-12-04T10:56:52;9.35;;;6.32;;
6444;SDS011;64733;51.424;5.484;2022-12-04T10:59:20;9.10;;;5.63;;
6444;SDS011;64733;51.424;5.484;2022-12-04T11:22:53;8.20;;;5.20;;
6444;SDS011;64733;51.424;5.484;2022-12-04T11:25:22;9.18;;;5.80;;
6444;SDS011;64733;51.424;5.484;2022-12-04T11:27:52;7.47;;;4.80;;
6444;SDS011;64733;51.424;5.484;2022-12-04T11:30:23;11.75;;;5.65;;
6444;SDS011;64733;51.424;5.484;2022-12-04T11:32:54;7.85;;;5.55;;
6444;SDS011;64733;51.424;5.484;2022-12-04T11:35:23;7.82;;;6.10;;
6444;SDS011;64733;51.424;5.484;2022-12-04T11:37:55;9.35;;;5.22;;
6444;SDS011;64733;51.424;5.484;2022-12-04T11:40:24;8.88;;;5.40;;
6444;SDS011;64733;51.424;5.484;2022-12-04T11:43:02;8.55;;;6.22;;
6444;SDS011;64733;51.424;5.484;2022-12-04T11:45:30;7.65;;;5.15;;
6444;SDS011;64733;51.424;5.484;2022-12-04T11:47:58;7.05;;;5.50;;
6444;SDS011;64733;51.424;5.484;2022-12-04T11:50:28;8.60;;;7.10;;
6444;SDS011;64733;51.424;5.484;2022-12-04T11:53:05;11.00;;;5.57;;
6444;SDS011;64733;51.424;5.484;2022-12-04T11:55:41;8.38;;;4.97;;
6444;SDS011;64733;51.424;5.484;2022-12-04T11:58:24;7.47;;;5.03;;
6444;SDS011;64733;51.424;5.484;2022-12-04T12:01:05;9.57;;;5.95;;
6444;SDS011;64733;51.424;5.484;2022-12-04T12:03:42;6.57;;;4.72;;
6444;SDS011;64733;51.424;5.484;2022-12-04T12:06:29;8.43;;;5.65;;
6444;SDS011;64733;51.424;5.484;2022-12-04T12:09:10;6.20;;;4.00;;
6444;SDS011;64733;51.424;5.484;2022-12-04T12:14:18;9.80;;;5.90;;
6444;SDS011;64733;51.424;5.484;2022-12-04T12:16:55;9.13;;;6.00;;
6444;SDS011;64733;51.424;5.484;2022-12-04T12:19:32;8.60;;;6.32;;
6444;SDS011;64733;51.424;5.484;2022-12-04T12:22:11;10.45;;;5.75;;
6444;SDS011;64733;51.424;5.484;2022-12-04T12:24:48;7.50;;;5.38;;
6444;SDS011;64733;51.424;5.484;2022-12-04T12:27:30;8.77;;;6.18;;
6444;SDS011;64733;51.424;5.484;2022-12-04T12:30:13;9.40;;;5.88;;
6444;SDS011;64733;51.424;5.484;2022-12-04T12:32:47;9.77;;;6.47;;
6444;SDS011;64733;51.424;5.484;2022-12-04T12:35:25;9.68;;;7.57;;
6444;SDS011;64733;51.424;5.484;2022-12-04T12:37:56;9.27;;;6.85;;
6444;SDS011;64733;51.424;5.484;2022-12-04T12:40:29;12.40;;;6.07;;
6444;SDS011;64733;51.424;5.484;2022-12-04T12:43:02;10.15;;;7.10;;
6444;SDS011;64733;51.424;5.484;2022-12-04T12:45:33;12.60;;;6.05;;
6444;SDS011;64733;51.424;5.484;2022-12-04T12:48:08;10.52;;;6.28;;
6444;SDS011;64733;51.424;5.484;2022-12-04T12:50:42;13.18;;;7.75;;
6444;SDS011;64733;51.424;5.484;2022-12-04T12:53:14;12.52;;;6.80;;
6444;SDS011;64733;51.424;5.484;2022-12-04T12:55:49;11.00;;;6.20;;
6444;SDS011;64733;51.424;5.484;2022-12-04T12:58:20;12.10;;;5.80;;
6444;SDS011;64733;51.424;5.484;2022-12-04T13:00:55;9.93;;;6.32;;
6444;SDS011;64733;51.424;5.484;2022-12-04T13:03:29;10.45;;;6.38;;
6444;SDS011;64733;51.424;5.484;2022-12-04T13:06:03;10.13;;;6.38;;
6444;SDS011;64733;51.424;5.484;2022-12-04T13:08:36;13.48;;;6.32;;
6444;SDS011;64733;51.424;5.484;2022-12-04T13:11:08;10.23;;;6.07;;
6444;SDS011;64733;51.424;5.484;2022-12-04T13:13:40;10.32;;;6.97;;
6444;SDS011;64733;51.424;5.484;2022-12-04T13:16:11;9.00;;;5.90;;
6444;SDS011;64733;51.424;5.484;2022-12-04T13:18:42;11.65;;;6.57;;
6444;SDS011;64733;51.424;5.484;2022-12-04T13:21:19;10.07;;;6.57;;
6444;SDS011;64733;51.424;5.484;2022-12-04T13:23:58;10.10;;;6.43;;
6444;SDS011;64733;51.424;5.484;2022-12-04T13:26:49;9.30;;;5.90;;
6444;SDS011;64733;51.424;5.484;2022-12-04T13:29:24;9.60;;;6.13;;
6444;SDS011;64733;51.424;5.484;2022-12-04T13:32:07;9.63;;;6.53;;
6444;SDS011;64733;51.424;5.484;2022-12-04T13:34:50;9.82;;;6.45;;
6444;SDS011;64733;51.424;5.484;2022-12-04T13:37:32;9.48;;;6.72;;
6444;SDS011;64733;51.424;5.484;2022-12-04T13:43:16;11.43;;;6.45;;
6444;SDS011;64733;51.424;5.484;2022-12-04T13:45:51;10.75;;;6.07;;
6444;SDS011;64733;51.424;5.484;2022-12-04T13:48:31;9.43;;;6.78;;
6444;SDS011;64733;51.424;5.484;2022-12-04T13:51:05;8.88;;;6.30;;
6444;SDS011;64733;51.424;5.484;2022-12-04T13:53:47;8.65;;;6.00;;
6444;SDS011;64733;51.424;5.484;2022-12-04T13:56:25;15.50;;;6.82;;
6444;SDS011;64733;51.424;5.484;2022-12-04T13:59:02;9.35;;;6.28;;
6444;SDS011;64733;51.424;5.484;2022-12-04T14:01:33;10.23;;;6.55;;
6444;SDS011;64733;51.424;5.484;2022-12-04T14:04:04;8.82;;;6.22;;
6444;SDS011;64733;51.424;5.484;2022-12-04T14:06:33;10.88;;;8.43;;
6444;SDS011;64733;51.424;5.484;2022-12-04T14:09:03;10.27;;;6.95;;
6444;SDS011;64733;51.424;5.484;2022-12-04T14:11:41;9.05;;;6.65;;
6444;SDS011;64733;51.424;5.484;2022-12-04T14:14:23;9.15;;;6.43;;
6444;SDS011;64733;51.424;5.484;2022-12-04T14:16:52;9.77;;;6.72;;
6444;SDS011;64733;51.424;5.484;2022-12-04T14:19:25;8.20;;;6.25;;
6444;SDS011;64733;51.424;5.484;2022-12-04T14:21:55;8.52;;;6.00;;
6444;SDS011;64733;51.424;5.484;2022-12-04T14:24:30;8.82;;;6.22;;
6444;SDS011;64733;51.424;5.484;2022-12-04T14:26:59;9.20;;;6.07;;
6444;SDS011;64733;51.424;5.484;2022-12-04T14:29:32;9.90;;;6.00;;
6444;SDS011;64733;51.424;5.484;2022-12-04T14:32:05;8.98;;;6.63;;
6444;SDS011;64733;51.424;5.484;2022-12-04T14:34:34;9.10;;;5.68;;
6444;SDS011;64733;51.424;5.484;2022-12-04T14:37:02;11.20;;;7.53;;
6444;SDS011;64733;51.424;5.484;2022-12-04T14:39:31;8.13;;;5.75;;
6444;SDS011;64733;51.424;5.484;2022-12-04T14:42:03;8.00;;;6.43;;
6444;SDS011;64733;51.424;5.484;2022-12-04T14:44:34;8.15;;;5.50;;
6444;SDS011;64733;51.424;5.484;2022-12-04T14:47:03;8.32;;;6.30;;
6444;SDS011;64733;51.424;5.484;2022-12-04T14:49:42;8.25;;;6.85;;
6444;SDS011;64733;51.424;5.484;2022-12-04T14:52:17;9.27;;;6.80;;
6444;SDS011;64733;51.424;5.484;2022-12-04T14:54:51;9.43;;;6.50;;
6444;SDS011;64733;51.424;5.484;2022-12-04T14:57:34;9.88;;;6.53;;
6444;SDS011;64733;51.424;5.484;2022-12-04T15:00:15;8.80;;;6.03;;
6444;SDS011;64733;51.424;5.484;2022-12-04T15:30:44;8.80;;;7.93;;
6444;SDS011;64733;51.424;5.484;2022-12-04T15:33:14;8.57;;;7.60;;
6444;SDS011;64733;51.424;5.484;2022-12-04T15:35:44;8.85;;;7.95;;
6444;SDS011;64733;51.424;5.484;2022-12-04T15:38:14;9.35;;;8.35;;
6444;SDS011;64733;51.424;5.484;2022-12-04T15:40:48;9.73;;;7.50;;
6444;SDS011;64733;51.424;5.484;2022-12-04T15:43:16;9.10;;;8.05;;
6444;SDS011;64733;51.424;5.484;2022-12-04T15:45:52;8.20;;;5.57;;
6444;SDS011;64733;51.424;5.484;2022-12-04T15:48:26;9.98;;;8.48;;
6444;SDS011;64733;51.424;5.484;2022-12-04T15:50:55;8.10;;;7.15;;
6444;SDS011;64733;51.424;5.484;2022-12-04T15:53:23;9.32;;;6.15;;
6444;SDS011;64733;51.424;5.484;2022-12-04T15:55:54;10.05;;;8.18;;
6444;SDS011;64733;51.424;5.484;2022-12-04T15:58:24;8.43;;;6.03;;
6444;SDS011;64733;51.424;5.484;2022-12-04T16:00:55;8.93;;;6.10;;
6444;SDS011;64733;51.424;5.484;2022-12-04T16:03:24;8.98;;;6.55;;
6444;SDS011;64733;51.424;5.484;2022-12-04T16:06:01;9.05;;;7.68;;
6444;SDS011;64733;51.424;5.484;2022-12-04T16:08:31;8.30;;;6.90;;
6444;SDS011;64733;51.424;5.484;2022-12-04T16:11:00;8.65;;;7.60;;
6444;SDS011;64733;51.424;5.484;2022-12-04T16:13:30;7.72;;;6.95;;
6444;SDS011;64733;51.424;5.484;2022-12-04T16:16:01;7.15;;;6.03;;
6444;SDS011;64733;51.424;5.484;2022-12-04T16:18:31;8.00;;;6.45;;
6444;SDS011;64733;51.424;5.484;2022-12-04T16:20:58;6.88;;;5.97;;
6444;SDS011;64733;51.424;5.484;2022-12-04T16:23:25;7.95;;;6.53;;
6444;SDS011;64733;51.424;5.484;2022-12-04T16:25:52;7.38;;;5.88;;
6444;SDS011;64733;51.424;5.484;2022-12-04T16:28:19;7.00;;;6.30;;
6444;SDS011;64733;51.424;5.484;2022-12-04T16:30:45;6.93;;;6.07;;
6444;SDS011;64733;51.424;5.484;2022-12-04T16:33:14;6.97;;;5.63;;
6444;SDS011;64733;51.424;5.484;2022-12-04T16:35:41;6.13;;;5.47;;
6444;SDS011;64733;51.424;5.484;2022-12-04T16:38:11;7.13;;;5.75;;
6444;SDS011;64733;51.424;5.484;2022-12-04T16:40:40;7.30;;;6.00;;
6444;SDS011;64733;51.424;5.484;2022-12-04T16:43:07;6.82;;;5.88;;
6444;SDS011;64733;51.424;5.484;2022-12-04T16:45:36;7.13;;;5.57;;
6444;SDS011;64733;51.424;5.484;2022-12-04T16:48:03;6.68;;;5.97;;
6444;SDS011;64733;51.424;5.484;2022-12-04T16:50:31;6.15;;;5.03;;
6444;SDS011;64733;51.424;5.484;2022-12-04T16:52:58;6.47;;;5.88;;
6444;SDS011;64733;51.424;5.484;2022-12-04T16:55:27;6.55;;;5.40;;
6444;SDS011;64733;51.424;5.484;2022-12-04T16:57:58;6.82;;;6.20;;
6444;SDS011;64733;51.424;5.484;2022-12-04T17:00:24;5.97;;;5.20;;
6444;SDS011;64733;51.424;5.484;2022-12-04T17:02:51;6.80;;;5.72;;
6444;SDS011;64733;51.424;5.484;2022-12-04T17:05:19;6.70;;;5.18;;
6444;SDS011;64733;51.424;5.484;2022-12-04T17:07:48;6.47;;;5.25;;
6444;SDS011;64733;51.424;5.484;2022-12-04T17:10:15;5.45;;;4.95;;